createdAt,value
2017-09-24T00:00:03.962Z,60.86
2017-09-24T00:00:44.439Z,60.76
2017-09-24T00:01:24.891Z,61.15
2017-09-24T00:02:05.352Z,60.76
2017-09-24T00:02:45.807Z,60.76
2017-09-24T00:03:26.255Z,61.25
2017-09-24T00:04:06.706Z,61.12
2017-09-24T00:04:47.161Z,61.15
2017-09-24T00:05:27.619Z,61.15
2017-09-24T00:06:08.069Z,60.93
2017-09-24T00:06:48.522Z,60.93
2017-09-24T00:07:28.990Z,60.93
2017-09-24T00:08:09.444Z,60.93
2017-09-24T00:08:49.895Z,60.83
2017-09-24T00:09:30.354Z,61.12
2017-09-24T00:10:10.813Z,61.41
2017-09-24T00:10:51.259Z,61.31
2017-09-24T00:11:31.707Z,61.6
2017-09-24T00:12:12.156Z,61.31
2017-09-24T00:12:52.609Z,61.51
2017-09-24T00:13:33.070Z,61.31
2017-09-24T00:14:13.514Z,61.31
2017-09-24T00:14:53.973Z,61.22
2017-09-24T00:15:34.426Z,61.31
2017-09-24T00:16:14.881Z,61.22
2017-09-24T00:16:55.336Z,61.22
2017-09-24T00:17:35.795Z,61.22
2017-09-24T00:18:16.245Z,61.51
2017-09-24T00:18:56.699Z,61.51
2017-09-24T00:19:37.153Z,61.6
2017-09-24T00:20:17.606Z,61.51
2017-09-24T00:20:58.062Z,61.6
2017-09-24T00:21:38.513Z,61.51
2017-09-24T00:22:18.970Z,61.41
2017-09-24T00:22:59.423Z,61.31
2017-09-24T00:23:39.878Z,61.51
2017-09-24T00:24:20.351Z,61.31
2017-09-24T00:25:00.798Z,61.31
2017-09-24T00:25:41.260Z,61.41
2017-09-24T00:26:21.719Z,61.41
2017-09-24T00:27:02.158Z,61.41
2017-09-24T00:27:42.616Z,61.22
2017-09-24T00:28:23.066Z,61.22
2017-09-24T00:29:03.520Z,61.31
2017-09-24T00:29:43.974Z,61.22
2017-09-24T00:30:24.429Z,61.22
2017-09-24T00:31:04.884Z,61.7
2017-09-24T00:31:45.334Z,61.7
2017-09-24T00:32:25.791Z,61.8
2017-09-24T00:33:06.243Z,61.6
2017-09-24T00:33:46.700Z,61.6
2017-09-24T00:34:27.148Z,61.8
2017-09-24T00:35:07.602Z,61.89
2017-09-24T00:35:48.056Z,61.89
2017-09-24T00:36:28.492Z,61.86
2017-09-24T00:37:08.971Z,61.77
2017-09-24T00:37:49.440Z,62.28
2017-09-24T00:38:29.902Z,61.57
2017-09-24T00:39:10.355Z,61.57
2017-09-24T00:39:50.810Z,62.18
2017-09-24T00:40:31.260Z,62.18
2017-09-24T00:41:11.718Z,61.96
2017-09-24T00:41:52.176Z,61.89
2017-09-24T00:42:32.626Z,62.05
2017-09-24T00:43:13.086Z,61.96
2017-09-24T00:43:53.543Z,62.47
2017-09-24T00:44:34.000Z,62.34
2017-09-24T00:45:14.457Z,62.15
2017-09-24T00:45:54.917Z,62.18
2017-09-24T00:46:35.365Z,62.15
2017-09-24T00:47:15.818Z,62.05
2017-09-24T00:47:56.273Z,62.05
2017-09-24T00:48:36.728Z,62.05
2017-09-24T00:49:17.181Z,62.05
2017-09-24T00:49:57.645Z,62.05
2017-09-24T00:50:38.105Z,62.08
2017-09-24T00:51:18.559Z,62.25
2017-09-24T00:51:59.039Z,62.18
2017-09-24T00:52:39.489Z,62.18
2017-09-24T00:53:19.944Z,62.05
2017-09-24T00:54:00.398Z,62.05
2017-09-24T00:54:40.854Z,62.05
2017-09-24T00:55:21.313Z,61.77
2017-09-24T00:56:01.789Z,61.8
2017-09-24T00:56:42.240Z,62.15
2017-09-24T00:57:22.685Z,61.8
2017-09-24T00:58:03.130Z,62.15
2017-09-24T00:58:43.593Z,61.96
2017-09-24T00:59:24.052Z,62.05
2017-09-24T01:00:04.510Z,62.08
2017-09-24T01:00:44.962Z,62.05
2017-09-24T01:01:25.420Z,62.15
2017-09-24T01:02:05.868Z,62.05
2017-09-24T01:02:46.324Z,61.96
2017-09-24T01:03:26.774Z,61.96
2017-09-24T01:04:07.225Z,62.08
2017-09-24T01:04:47.682Z,62.28
2017-09-24T01:05:28.137Z,61.89
2017-09-24T01:06:08.587Z,61.99
2017-09-24T01:06:49.042Z,62.15
2017-09-24T01:07:29.511Z,62.08
2017-09-24T01:08:09.964Z,62.25
2017-09-24T01:08:50.420Z,62.18
2017-09-24T01:09:30.876Z,62.15
2017-09-24T01:10:11.335Z,62.47
2017-09-24T01:10:51.788Z,62.28
2017-09-24T01:11:32.250Z,62.25
2017-09-24T01:12:12.698Z,62.15
2017-09-24T01:12:53.163Z,62.57
2017-09-24T01:13:33.629Z,62.44
2017-09-24T01:14:14.082Z,62.63
2017-09-24T01:14:54.542Z,62.63
2017-09-24T01:15:34.993Z,62.57
2017-09-24T01:16:15.454Z,62.44
2017-09-24T01:16:55.914Z,62.15
2017-09-24T01:17:36.372Z,62.25
2017-09-24T01:18:16.824Z,62.25
2017-09-24T01:18:57.281Z,62.54
2017-09-24T01:19:37.752Z,62.25
2017-09-24T01:20:18.202Z,62.18
2017-09-24T01:20:58.657Z,62.18
2017-09-24T01:21:39.116Z,62.25
2017-09-24T01:22:19.573Z,62.57
2017-09-24T01:23:00.030Z,62.54
2017-09-24T01:23:40.486Z,62.57
2017-09-24T01:24:20.938Z,62.44
2017-09-24T01:25:01.369Z,62.54
2017-09-24T01:25:41.824Z,62.37
2017-09-24T01:26:22.280Z,62.34
2017-09-24T01:27:02.730Z,62.37
2017-09-24T01:27:43.181Z,62.54
2017-09-24T01:28:23.631Z,62.44
2017-09-24T01:29:04.077Z,62.54
2017-09-24T01:29:44.524Z,62.57
2017-09-24T01:30:24.980Z,62.44
2017-09-24T01:31:05.432Z,62.54
2017-09-24T01:31:45.872Z,62.44
2017-09-24T01:32:26.377Z,62.54
2017-09-24T01:34:13.917Z,62.73
2017-09-24T01:34:54.372Z,62.54
2017-09-24T01:35:34.829Z,62.54
2017-09-24T01:36:15.286Z,62.37
2017-09-24T01:36:55.742Z,62.54
2017-09-24T01:37:36.217Z,62.54
2017-09-24T01:38:16.646Z,62.54
2017-09-24T01:38:57.102Z,62.54
2017-09-24T01:39:37.551Z,62.63
2017-09-24T01:40:18.005Z,62.63
2017-09-24T01:40:58.453Z,62.63
2017-09-24T01:41:38.899Z,62.44
2017-09-24T01:42:19.350Z,62.63
2017-09-24T01:42:59.802Z,62.44
2017-09-24T01:43:40.245Z,62.54
2017-09-24T01:44:20.692Z,62.54
2017-09-24T01:45:01.153Z,62.54
2017-09-24T01:45:41.602Z,62.54
2017-09-24T01:46:22.063Z,62.73
2017-09-24T01:47:02.517Z,62.82
2017-09-24T01:47:42.973Z,62.63
2017-09-24T01:48:23.430Z,62.92
2017-09-24T01:49:03.890Z,62.63
2017-09-24T01:49:44.346Z,62.73
2017-09-24T01:50:24.789Z,62.82
2017-09-24T01:51:05.245Z,62.86
2017-09-24T01:51:45.696Z,62.92
2017-09-24T01:52:26.134Z,62.73
2017-09-24T01:53:06.592Z,62.86
2017-09-24T01:53:47.040Z,62.63
2017-09-24T01:54:27.494Z,62.92
2017-09-24T01:55:07.947Z,62.73
2017-09-24T01:55:48.390Z,62.73
2017-09-24T01:56:28.841Z,62.82
2017-09-24T01:57:09.297Z,62.82
2017-09-24T01:57:49.756Z,62.63
2017-09-24T01:58:30.234Z,62.63
2017-09-24T01:59:10.683Z,62.63
2017-09-24T01:59:51.141Z,62.73
2017-09-24T02:00:31.598Z,62.73
2017-09-24T02:01:12.055Z,62.73
2017-09-24T02:01:52.532Z,62.82
2017-09-24T02:02:32.966Z,62.82
2017-09-24T02:03:13.413Z,62.82
2017-09-24T02:03:53.865Z,62.92
2017-09-24T02:04:34.324Z,62.63
2017-09-24T02:05:14.778Z,63.02
2017-09-24T02:05:55.244Z,62.44
2017-09-24T02:06:35.697Z,63.12
2017-09-24T02:07:16.149Z,63.21
2017-09-24T02:07:56.601Z,63.02
2017-09-24T02:08:37.062Z,63.24
2017-09-24T02:09:17.521Z,63.02
2017-09-24T02:09:57.979Z,63.02
2017-09-24T02:10:38.428Z,63.12
2017-09-24T02:11:18.884Z,63.02
2017-09-24T02:11:59.342Z,63.12
2017-09-24T02:12:39.805Z,63.12
2017-09-24T02:13:20.260Z,63.24
2017-09-24T02:14:00.733Z,63.31
2017-09-24T02:14:41.190Z,62.92
2017-09-24T02:15:21.605Z,63.31
2017-09-24T02:16:02.064Z,63.02
2017-09-24T02:16:42.521Z,63.31
2017-09-24T02:17:22.978Z,63.02
2017-09-24T02:18:03.438Z,63.02
2017-09-24T02:18:43.892Z,63.31
2017-09-24T02:19:24.346Z,62.92
2017-09-24T02:20:04.802Z,63.02
2017-09-24T02:20:45.249Z,63.05
2017-09-24T02:21:25.718Z,63.02
2017-09-24T02:22:06.171Z,63.02
2017-09-24T02:22:46.625Z,62.82
2017-09-24T02:23:27.072Z,63.02
2017-09-24T02:24:07.522Z,62.92
2017-09-24T02:24:47.979Z,63.12
2017-09-24T02:25:28.432Z,63.02
2017-09-24T02:26:08.886Z,63.12
2017-09-24T02:26:49.344Z,62.82
2017-09-24T02:27:29.793Z,63.02
2017-09-24T02:28:10.253Z,63.02
2017-09-24T02:28:50.705Z,63.02
2017-09-24T02:29:31.157Z,63.02
2017-09-24T02:30:11.616Z,62.82
2017-09-24T02:30:52.071Z,62.82
2017-09-24T02:31:32.530Z,62.82
2017-09-24T02:32:12.981Z,63.02
2017-09-24T02:32:53.438Z,62.82
2017-09-24T02:33:33.897Z,63.12
2017-09-24T02:34:14.355Z,62.82
2017-09-24T02:34:54.811Z,62.73
2017-09-24T02:35:35.272Z,63.02
2017-09-24T02:36:15.724Z,62.82
2017-09-24T02:36:56.176Z,62.82
2017-09-24T02:37:36.638Z,62.82
2017-09-24T02:38:17.092Z,63.02
2017-09-24T02:38:57.545Z,62.82
2017-09-24T02:39:38.003Z,62.82
2017-09-24T02:40:18.452Z,63.02
2017-09-24T02:40:58.941Z,62.82
2017-09-24T02:41:39.388Z,62.82
2017-09-24T02:42:19.857Z,62.82
2017-09-24T02:43:00.300Z,62.82
2017-09-24T02:43:40.753Z,62.82
2017-09-24T02:44:21.207Z,62.82
2017-09-24T02:45:01.663Z,62.73
2017-09-24T02:45:42.114Z,62.73
2017-09-24T02:46:22.585Z,62.82
2017-09-24T02:47:03.040Z,62.82
2017-09-24T02:47:43.497Z,62.73
2017-09-24T02:48:23.957Z,62.92
2017-09-24T02:49:04.409Z,62.92
2017-09-24T02:49:44.861Z,62.82
2017-09-24T02:50:25.318Z,62.73
2017-09-24T02:51:05.780Z,62.82
2017-09-24T02:51:46.239Z,62.82
2017-09-24T02:52:26.687Z,62.92
2017-09-24T02:53:07.144Z,62.92
2017-09-24T02:53:47.593Z,62.73
2017-09-24T02:54:28.062Z,62.92
2017-09-24T02:55:08.508Z,63.02
2017-09-24T02:55:48.962Z,62.82
2017-09-24T02:56:29.418Z,63.02
2017-09-24T02:57:09.872Z,63.12
2017-09-24T02:57:50.322Z,62.73
2017-09-24T02:58:30.779Z,62.82
2017-09-24T02:59:11.235Z,62.92
2017-09-24T02:59:51.691Z,62.92
2017-09-24T03:00:32.144Z,62.82
2017-09-24T03:01:12.583Z,63.02
2017-09-24T03:01:53.045Z,62.73
2017-09-24T03:02:33.498Z,63.02
2017-09-24T03:03:13.961Z,62.82
2017-09-24T03:03:54.412Z,63.02
2017-09-24T03:04:34.865Z,62.73
2017-09-24T03:05:15.312Z,63.02
2017-09-24T03:05:55.764Z,62.82
2017-09-24T03:06:36.217Z,62.82
2017-09-24T03:07:16.677Z,62.82
2017-09-24T03:07:57.135Z,62.92
2017-09-24T03:08:37.592Z,62.82
2017-09-24T03:09:18.045Z,63.02
2017-09-24T03:09:58.504Z,62.92
2017-09-24T03:10:38.957Z,63.12
2017-09-24T03:11:19.406Z,62.82
2017-09-24T03:11:59.875Z,62.92
2017-09-24T03:12:40.333Z,63.02
2017-09-24T03:13:20.789Z,63.02
2017-09-24T03:14:01.244Z,63.12
2017-09-24T03:14:41.703Z,62.92
2017-09-24T03:15:22.154Z,63.12
2017-09-24T03:16:02.602Z,63.02
2017-09-24T03:16:43.059Z,63.12
2017-09-24T03:17:23.512Z,63.02
2017-09-24T03:18:03.969Z,63.02
2017-09-24T03:18:44.421Z,62.92
2017-09-24T03:19:24.875Z,63.12
2017-09-24T03:20:05.332Z,63.21
2017-09-24T03:20:45.790Z,63.12
2017-09-24T03:21:26.239Z,63.02
2017-09-24T03:22:06.696Z,63.21
2017-09-24T03:22:47.150Z,62.92
2017-09-24T03:23:27.605Z,63.12
2017-09-24T03:24:08.059Z,63.21
2017-09-24T03:24:48.519Z,63.21
2017-09-24T03:25:28.971Z,63.02
2017-09-24T03:26:09.428Z,63.21
2017-09-24T03:26:49.887Z,63.12
2017-09-24T03:27:30.332Z,63.31
2017-09-24T03:28:10.804Z,63.31
2017-09-24T03:28:51.240Z,63.31
2017-09-24T03:29:31.689Z,63.21
2017-09-24T03:30:12.149Z,63.12
2017-09-24T03:30:52.608Z,63.31
2017-09-24T03:31:33.061Z,63.5
2017-09-24T03:32:13.517Z,63.31
2017-09-24T03:32:53.996Z,63.5
2017-09-24T03:33:34.450Z,63.5
2017-09-24T03:34:14.907Z,63.12
2017-09-24T03:34:55.369Z,63.12
2017-09-24T03:35:35.824Z,63.02
2017-09-24T03:36:16.276Z,63.12
2017-09-24T03:36:56.733Z,63.12
2017-09-24T03:37:37.187Z,63.12
2017-09-24T03:38:17.658Z,63.21
2017-09-24T03:38:58.096Z,63.21
2017-09-24T03:39:38.559Z,63.21
2017-09-24T03:40:19.004Z,63.31
2017-09-24T03:40:59.458Z,63.21
2017-09-24T03:41:39.910Z,63.31
2017-09-24T03:42:20.369Z,63.4
2017-09-24T03:43:00.828Z,62.92
2017-09-24T03:43:41.292Z,62.92
2017-09-24T03:44:21.741Z,63.12
2017-09-24T03:45:02.201Z,63.21
2017-09-24T03:45:42.667Z,63.21
2017-09-24T03:46:23.127Z,63.21
2017-09-24T03:47:03.586Z,63.6
2017-09-24T03:47:44.047Z,63.6
2017-09-24T03:48:24.505Z,63.31
2017-09-24T03:49:04.962Z,63.31
2017-09-24T03:49:45.418Z,63.6
2017-09-24T03:50:25.873Z,63.31
2017-09-24T03:51:06.329Z,63.21
2017-09-24T03:51:46.783Z,63.4
2017-09-24T03:52:27.237Z,63.31
2017-09-24T03:53:07.685Z,63.4
2017-09-24T03:53:48.139Z,63.4
2017-09-24T03:54:28.595Z,63.4
2017-09-24T03:55:09.048Z,63.6
2017-09-24T03:55:49.502Z,63.4
2017-09-24T03:56:29.968Z,63.6
2017-09-24T03:57:10.431Z,63.4
2017-09-24T03:57:50.878Z,63.4
2017-09-24T03:58:31.335Z,63.4
2017-09-24T03:59:11.791Z,63.5
2017-09-24T03:59:52.251Z,63.4
2017-09-24T04:00:32.703Z,63.6
2017-09-24T04:01:13.159Z,63.4
2017-09-24T04:01:53.609Z,63.5
2017-09-24T04:02:34.068Z,63.4
2017-09-24T04:03:14.520Z,63.31
2017-09-24T04:03:54.981Z,63.4
2017-09-24T04:04:35.440Z,63.5
2017-09-24T04:05:15.889Z,63.31
2017-09-24T04:05:56.344Z,63.4
2017-09-24T04:06:36.799Z,63.6
2017-09-24T04:07:17.254Z,63.5
2017-09-24T04:09:09.818Z,63.21
2017-09-24T04:09:50.268Z,63.31
2017-09-24T04:10:30.725Z,63.31
2017-09-24T04:11:11.179Z,63.21
2017-09-24T04:11:51.659Z,63.12
2017-09-24T04:12:32.087Z,63.31
2017-09-24T04:13:12.544Z,63.02
2017-09-24T04:13:53.001Z,63.02
2017-09-24T04:14:33.452Z,62.92
2017-09-24T04:15:13.911Z,63.4
2017-09-24T04:15:54.369Z,63.31
2017-09-24T04:16:34.822Z,63.21
2017-09-24T04:17:15.265Z,63.12
2017-09-24T04:17:55.717Z,63.12
2017-09-24T04:18:36.149Z,63.12
2017-09-24T04:19:16.635Z,63.5
2017-09-24T04:19:57.059Z,63.31
2017-09-24T04:20:37.525Z,63.31
2017-09-24T04:21:17.986Z,63.21
2017-09-24T04:21:58.430Z,63.02
2017-09-24T04:22:38.881Z,63.31
2017-09-24T04:23:19.338Z,63.02
2017-09-24T04:23:59.788Z,63.12
2017-09-24T04:24:40.249Z,62.82
2017-09-24T04:25:20.706Z,62.82
2017-09-24T04:26:01.153Z,63.02
2017-09-24T04:26:41.609Z,62.92
2017-09-24T04:27:22.063Z,62.92
2017-09-24T04:28:02.531Z,62.82
2017-09-24T04:28:42.992Z,62.86
2017-09-24T04:29:23.478Z,63.05
2017-09-24T04:30:03.931Z,62.86
2017-09-24T04:30:44.388Z,62.76
2017-09-24T04:31:24.845Z,63.02
2017-09-24T04:32:05.301Z,62.76
2017-09-24T04:32:45.755Z,63.12
2017-09-24T04:33:26.218Z,63.12
2017-09-24T04:34:06.668Z,63.05
2017-09-24T04:34:47.125Z,63.15
2017-09-24T04:35:27.573Z,63.02
2017-09-24T04:36:08.021Z,63.02
2017-09-24T04:36:48.478Z,62.92
2017-09-24T04:37:28.934Z,62.82
2017-09-24T04:38:09.392Z,63.05
2017-09-24T04:38:49.845Z,63.02
2017-09-24T04:40:42.463Z,63.02
2017-09-24T04:41:22.924Z,62.95
2017-09-24T04:42:03.372Z,63.21
2017-09-24T04:42:43.826Z,62.92
2017-09-24T04:43:24.280Z,62.92
2017-09-24T04:44:04.732Z,63.34
2017-09-24T04:44:45.188Z,63.31
2017-09-24T04:45:25.645Z,63.15
2017-09-24T04:46:06.097Z,63.34
2017-09-24T04:46:46.551Z,63.34
2017-09-24T04:47:27.005Z,63.12
2017-09-24T04:48:07.451Z,63.31
2017-09-24T04:48:47.904Z,63.34
2017-09-24T04:49:28.351Z,63.02
2017-09-24T04:50:08.808Z,63.05
2017-09-24T04:50:49.258Z,62.92
2017-09-24T04:51:29.705Z,63.21
2017-09-24T04:52:10.167Z,62.92
2017-09-24T04:52:50.618Z,63.05
2017-09-24T04:53:31.075Z,63.31
2017-09-24T04:54:11.528Z,63.21
2017-09-24T04:54:51.983Z,63.02
2017-09-24T04:55:32.434Z,63.12
2017-09-24T04:56:12.885Z,63.12
2017-09-24T04:56:53.340Z,63.12
2017-09-24T04:57:33.817Z,63.21
2017-09-24T04:58:14.254Z,63.15
2017-09-24T04:58:54.712Z,63.12
2017-09-24T04:59:35.162Z,63.12
2017-09-24T05:00:15.613Z,62.95
2017-09-24T05:00:56.112Z,63.05
2017-09-24T05:01:36.563Z,63.02
2017-09-24T05:02:17.012Z,63.12
2017-09-24T05:02:57.468Z,63.05
2017-09-24T05:03:37.913Z,63.02
2017-09-24T05:04:18.376Z,63.05
2017-09-24T05:04:58.828Z,63.21
2017-09-24T05:05:39.276Z,63.02
2017-09-24T05:06:19.761Z,63.31
2017-09-24T05:07:00.177Z,62.82
2017-09-24T05:07:40.631Z,62.47
2017-09-24T05:08:21.082Z,63.31
2017-09-24T05:09:01.533Z,62.47
2017-09-24T05:09:41.985Z,63.31
2017-09-24T05:10:22.445Z,63.21
2017-09-24T05:11:02.901Z,63.21
2017-09-24T05:11:43.363Z,63.02
2017-09-24T05:12:23.836Z,62.54
2017-09-24T05:13:04.269Z,62.82
2017-09-24T05:13:44.727Z,63.21
2017-09-24T05:14:25.179Z,63.21
2017-09-24T05:15:05.633Z,63.02
2017-09-24T05:15:46.088Z,62.92
2017-09-24T05:16:26.543Z,62.44
2017-09-24T05:17:06.997Z,63.24
2017-09-24T05:17:47.457Z,63.02
2017-09-24T05:18:27.907Z,63.02
2017-09-24T05:19:08.364Z,62.82
2017-09-24T05:19:48.820Z,63.21
2017-09-24T05:20:29.276Z,63.21
2017-09-24T05:21:09.732Z,63.05
2017-09-24T05:21:50.184Z,63.12
2017-09-24T05:22:30.646Z,63.21
2017-09-24T05:23:11.100Z,63.02
2017-09-24T05:23:51.543Z,63.05
2017-09-24T05:24:31.992Z,63.24
2017-09-24T05:25:12.451Z,63.21
2017-09-24T05:25:52.898Z,63.24
2017-09-24T05:26:33.356Z,63.02
2017-09-24T05:27:13.811Z,63.24
2017-09-24T05:27:54.270Z,63.24
2017-09-24T05:28:34.733Z,62.44
2017-09-24T05:29:15.186Z,63.05
2017-09-24T05:29:55.636Z,63.24
2017-09-24T05:30:36.090Z,63.02
2017-09-24T05:31:16.565Z,62.44
2017-09-24T05:31:57.002Z,63.12
2017-09-24T05:32:37.447Z,63.02
2017-09-24T05:33:17.907Z,63.02
2017-09-24T05:33:58.407Z,63.05
2017-09-24T05:34:38.875Z,63.02
2017-09-24T05:35:19.321Z,62.44
2017-09-24T05:35:59.777Z,63.15
2017-09-24T05:36:40.238Z,62.92
2017-09-24T05:37:20.700Z,63.21
2017-09-24T05:38:01.149Z,63.21
2017-09-24T05:38:41.607Z,62.44
2017-09-24T05:39:22.060Z,62.63
2017-09-24T05:40:02.508Z,63.21
2017-09-24T05:40:42.951Z,62.44
2017-09-24T05:41:23.403Z,63.02
2017-09-24T05:42:03.855Z,63.02
2017-09-24T05:42:44.310Z,62.54
2017-09-24T05:43:24.766Z,62.66
2017-09-24T05:44:05.229Z,63.02
2017-09-24T05:44:45.679Z,63.02
2017-09-24T05:45:26.136Z,62.66
2017-09-24T05:46:06.591Z,63.12
2017-09-24T05:46:47.044Z,62.82
2017-09-24T05:47:27.500Z,62.76
2017-09-24T05:48:07.955Z,63.43
2017-09-24T05:48:48.418Z,62.66
2017-09-24T05:49:28.872Z,62.86
2017-09-24T05:50:09.336Z,62.86
2017-09-24T05:50:49.789Z,62.82
2017-09-24T05:51:30.253Z,62.95
2017-09-24T05:52:10.696Z,62.76
2017-09-24T05:52:51.145Z,62.82
2017-09-24T05:53:31.597Z,62.66
2017-09-24T05:54:12.047Z,62.76
2017-09-24T05:54:52.504Z,62.63
2017-09-24T05:55:32.946Z,62.82
2017-09-24T05:56:13.396Z,62.66
2017-09-24T05:56:53.841Z,62.66
2017-09-24T05:57:34.315Z,62.66
2017-09-24T05:58:14.764Z,62.86
2017-09-24T05:58:55.223Z,62.86
2017-09-24T05:59:35.675Z,62.57
2017-09-24T06:00:16.136Z,62.86
2017-09-24T06:00:56.595Z,62.86
2017-09-24T06:01:37.056Z,62.73
2017-09-24T06:02:17.514Z,62.66
2017-09-24T06:02:57.955Z,63.02
2017-09-24T06:03:38.412Z,62.66
2017-09-24T06:04:18.866Z,62.76
2017-09-24T06:04:59.320Z,62.76
2017-09-24T06:05:39.773Z,62.76
2017-09-24T06:06:20.230Z,62.66
2017-09-24T06:07:00.688Z,62.86
2017-09-24T06:07:41.125Z,62.86
2017-09-24T06:08:21.585Z,62.76
2017-09-24T06:09:02.043Z,62.76
2017-09-24T06:09:42.489Z,62.76
2017-09-24T06:10:22.946Z,62.86
2017-09-24T06:11:03.405Z,62.57
2017-09-24T06:11:43.858Z,62.76
2017-09-24T06:12:24.313Z,62.57
2017-09-24T06:13:04.769Z,62.47
2017-09-24T06:13:45.229Z,62.47
2017-09-24T06:14:25.686Z,62.57
2017-09-24T06:15:06.139Z,62.57
2017-09-24T06:15:46.595Z,62.57
2017-09-24T06:16:27.051Z,62.57
2017-09-24T06:17:07.508Z,62.47
2017-09-24T06:17:47.957Z,62.66
2017-09-24T06:18:28.414Z,62.57
2017-09-24T06:19:08.863Z,62.37
2017-09-24T06:19:49.319Z,62.37
2017-09-24T06:20:29.783Z,62.37
2017-09-24T06:21:10.232Z,62.47
2017-09-24T06:21:50.669Z,62.28
2017-09-24T06:22:31.124Z,62.57
2017-09-24T06:23:11.581Z,62.28
2017-09-24T06:23:52.032Z,62.28
2017-09-24T06:24:32.494Z,62.28
2017-09-24T06:25:12.952Z,62.37
2017-09-24T06:25:53.400Z,62.47
2017-09-24T06:26:33.852Z,62.47
2017-09-24T06:27:14.308Z,62.47
2017-09-24T06:27:54.766Z,62.47
2017-09-24T06:28:35.219Z,62.66
2017-09-24T06:29:15.674Z,62.47
2017-09-24T06:29:56.136Z,62.37
2017-09-24T06:30:36.592Z,62.47
2017-09-24T06:31:17.053Z,62.18
2017-09-24T06:31:57.502Z,61.99
2017-09-24T06:32:37.965Z,62.28
2017-09-24T06:33:18.417Z,62.08
2017-09-24T06:33:58.876Z,62.18
2017-09-24T06:34:39.331Z,62.18
2017-09-24T06:35:19.791Z,61.99
2017-09-24T06:36:00.239Z,62.08
2017-09-24T06:36:40.690Z,62.08
2017-09-24T06:37:21.136Z,61.89
2017-09-24T06:38:01.590Z,62.08
2017-09-24T06:38:42.185Z,61.99
2017-09-24T06:39:22.631Z,62.08
2017-09-24T06:40:03.068Z,61.89
2017-09-24T06:40:43.526Z,61.8
2017-09-24T06:41:24.254Z,61.8
2017-09-24T06:42:04.726Z,61.8
2017-09-24T06:42:45.306Z,61.8
2017-09-24T06:43:25.724Z,62.18
2017-09-24T06:44:06.173Z,62.18
2017-09-24T06:44:46.624Z,61.89
2017-09-24T06:45:27.079Z,61.99
2017-09-24T06:46:07.590Z,61.99
2017-09-24T06:46:48.025Z,62.02
2017-09-24T06:47:28.478Z,61.99
2017-09-24T06:48:08.929Z,62.4
2017-09-24T06:48:49.395Z,62.02
2017-09-24T06:49:29.848Z,62.12
2017-09-24T06:50:10.300Z,62.12
2017-09-24T06:50:50.746Z,62.12
2017-09-24T06:51:31.202Z,62.12
2017-09-24T06:52:11.650Z,62.21
2017-09-24T06:52:52.098Z,62.21
2017-09-24T06:53:32.557Z,62.21
2017-09-24T06:54:13.021Z,62.12
2017-09-24T06:54:53.471Z,62.12
2017-09-24T06:55:33.939Z,62.12
2017-09-24T06:56:14.387Z,61.92
2017-09-24T06:56:54.841Z,62.21
2017-09-24T06:57:35.294Z,62.21
2017-09-24T06:58:15.751Z,61.73
2017-09-24T06:58:56.216Z,61.83
2017-09-24T06:59:36.673Z,61.63
2017-09-24T07:00:17.100Z,61.73
2017-09-24T07:00:57.571Z,61.83
2017-09-24T07:01:38.035Z,61.73
2017-09-24T07:02:18.485Z,61.54
2017-09-24T07:02:58.939Z,61.63
2017-09-24T07:03:39.399Z,61.73
2017-09-24T07:04:19.848Z,61.73
2017-09-24T07:05:00.303Z,61.63
2017-09-24T07:05:40.754Z,61.73
2017-09-24T07:06:21.213Z,61.44
2017-09-24T07:07:01.670Z,61.15
2017-09-24T07:07:42.129Z,61.25
2017-09-24T07:08:22.575Z,61.44
2017-09-24T07:09:03.022Z,61.54
2017-09-24T07:09:43.478Z,61.34
2017-09-24T07:10:23.946Z,61.54
2017-09-24T07:11:04.384Z,61.34
2017-09-24T07:11:44.837Z,61.54
2017-09-24T07:12:25.287Z,61.54
2017-09-24T07:13:05.829Z,61.44
2017-09-24T07:13:46.287Z,61.34
2017-09-24T07:14:26.734Z,61.44
2017-09-24T07:15:07.179Z,61.44
2017-09-24T07:15:47.633Z,61.54
2017-09-24T07:16:28.079Z,61.54
2017-09-24T07:17:08.540Z,61.18
2017-09-24T07:17:49.027Z,61.18
2017-09-24T07:18:29.468Z,60.76
2017-09-24T07:19:09.925Z,60.96
2017-09-24T07:19:50.401Z,61.08
2017-09-24T07:20:30.858Z,60.99
2017-09-24T07:21:11.690Z,61.08
2017-09-24T07:21:52.141Z,61.08
2017-09-24T07:22:32.610Z,60.69
2017-09-24T07:23:13.066Z,60.99
2017-09-24T07:23:53.517Z,61.08
2017-09-24T07:24:33.979Z,60.6
2017-09-24T07:25:14.436Z,60.5
2017-09-24T07:25:54.870Z,60.79
2017-09-24T07:26:35.372Z,60.79
2017-09-24T07:27:15.821Z,60.6
2017-09-24T07:27:56.273Z,60.41
2017-09-24T07:28:36.749Z,60.79
2017-09-24T07:29:17.199Z,60.6
2017-09-24T07:29:57.682Z,60.69
2017-09-24T07:30:38.195Z,60.11
2017-09-24T07:31:18.639Z,60.11
2017-09-24T07:31:59.106Z,60.31
2017-09-24T07:32:39.542Z,60.11
2017-09-24T07:33:20.024Z,60.11
2017-09-24T07:34:00.476Z,60.11
2017-09-24T07:34:40.929Z,60.11
2017-09-24T07:35:21.381Z,60.02
2017-09-24T07:36:01.831Z,60.11
2017-09-24T07:36:42.290Z,60.21
2017-09-24T07:37:22.743Z,60.21
2017-09-24T07:38:03.183Z,60.14
2017-09-24T07:38:43.631Z,60.21
2017-09-24T07:39:24.082Z,60.21
2017-09-24T07:40:04.536Z,60.24
2017-09-24T07:40:45.000Z,60.11
2017-09-24T07:41:25.464Z,60.31
2017-09-24T07:42:05.917Z,60.11
2017-09-24T07:42:46.354Z,59.73
2017-09-24T07:43:26.813Z,60.21
2017-09-24T07:44:07.268Z,60.11
2017-09-24T07:44:47.724Z,60.31
2017-09-24T07:45:28.174Z,60.41
2017-09-24T07:46:08.628Z,60.5
2017-09-24T07:46:49.090Z,60.5
2017-09-24T07:47:29.550Z,60.41
2017-09-24T07:48:10.001Z,60.5
2017-09-24T07:48:50.457Z,60.31
2017-09-24T07:49:30.905Z,60.21
2017-09-24T07:50:11.377Z,60.21
2017-09-24T07:50:51.833Z,60.21
2017-09-24T07:51:32.287Z,60.11
2017-09-24T07:52:12.738Z,60.11
2017-09-24T07:52:53.191Z,60.11
2017-09-24T07:53:33.637Z,60.21
2017-09-24T07:54:14.092Z,60.11
2017-09-24T07:54:54.545Z,60.11
2017-09-24T07:55:35.014Z,60.11
2017-09-24T07:56:15.465Z,60.5
2017-09-24T07:56:55.920Z,60.6
2017-09-24T07:57:36.373Z,60.69
2017-09-24T07:58:16.840Z,60.5
2017-09-24T07:58:57.301Z,60.79
2017-09-24T07:59:37.757Z,60.5
2017-09-24T08:00:18.213Z,60.6
2017-09-24T08:00:58.674Z,60.6
2017-09-24T08:01:39.189Z,60.5
2017-09-24T08:02:19.685Z,60.5
2017-09-24T08:03:00.160Z,60.41
2017-09-24T08:03:40.622Z,60.41
2017-09-24T08:04:21.111Z,60.79
2017-09-24T08:05:01.574Z,60.69
2017-09-24T08:05:42.028Z,60.79
2017-09-24T08:06:22.490Z,60.41
2017-09-24T08:07:02.942Z,60.6
2017-09-24T08:07:43.388Z,60.6
2017-09-24T08:08:23.843Z,60.6
2017-09-24T08:09:04.303Z,60.21
2017-09-24T08:09:44.753Z,60.11
2017-09-24T08:10:25.198Z,60.02
2017-09-24T08:11:05.648Z,60.21
2017-09-24T08:11:46.101Z,60.21
2017-09-24T08:12:26.560Z,60.11
2017-09-24T08:13:07.018Z,60.02
2017-09-24T08:13:47.451Z,60.21
2017-09-24T08:14:27.929Z,60.21
2017-09-24T08:15:08.390Z,60.21
2017-09-24T08:15:48.845Z,60.02
2017-09-24T08:16:29.306Z,60.11
2017-09-24T08:17:09.753Z,60.02
2017-09-24T08:17:50.203Z,60.21
2017-09-24T08:18:30.657Z,60.11
2017-09-24T08:19:11.111Z,60.11
2017-09-24T08:19:51.566Z,60.11
2017-09-24T08:20:32.027Z,60.31
2017-09-24T08:21:12.488Z,60.21
2017-09-24T08:21:52.946Z,60.21
2017-09-24T08:22:33.389Z,60.11
2017-09-24T08:23:13.836Z,59.86
2017-09-24T08:23:54.294Z,59.38
2017-09-24T08:24:34.759Z,59.66
2017-09-24T08:25:15.214Z,59.66
2017-09-24T08:25:55.673Z,59.76
2017-09-24T08:26:36.191Z,59.56
2017-09-24T08:27:16.669Z,59.95
2017-09-24T08:27:57.132Z,59.86
2017-09-24T08:28:37.625Z,59.56
2017-09-24T08:29:18.070Z,59.56
2017-09-24T08:29:58.522Z,59.76
2017-09-24T08:30:38.970Z,59.59
2017-09-24T08:31:19.414Z,59.21
2017-09-24T08:31:59.854Z,58.92
2017-09-24T08:32:40.325Z,59.4
2017-09-24T08:33:20.786Z,59.31
2017-09-24T08:34:01.238Z,59.21
2017-09-24T08:34:41.688Z,58.82
2017-09-24T08:35:22.144Z,58.82
2017-09-24T08:36:02.590Z,58.53
2017-09-24T08:36:43.073Z,58.65
2017-09-24T08:37:23.537Z,58.47
2017-09-24T08:38:04.029Z,58.85
2017-09-24T08:38:44.454Z,58.65
2017-09-24T08:39:24.916Z,58.47
2017-09-24T08:40:05.371Z,58.85
2017-09-24T08:40:45.926Z,58.56
2017-09-24T08:41:26.265Z,58.47
2017-09-24T08:42:06.722Z,58.37
2017-09-24T08:42:47.207Z,58.47
2017-09-24T08:43:27.849Z,58.56
2017-09-24T08:44:08.336Z,58.27
2017-09-24T08:44:48.808Z,57.98
2017-09-24T08:45:29.248Z,58.37